Time;durP1;ratioP1;P1;durP2;ratioP2;P2;SDS_P1;SDS_P2;PMS_P1;PMS_P2;Temp;Humidity;BMP_temperature;BMP_pressure;BME280_temperature;BME280_humidity;BME280_pressure;Samples;Min_cycle;Max_cycle;Signal;HPM_P1;HPM_P2
2022/06/13 00:01:13;;;;;;;6.33;5.37;;;;;;;18.11;100.00;99360.67;1716841;82;21039;-62
2022/06/13 00:03:39;;;;;;;9.88;6.33;;;;;;;18.11;100.00;99352.41;1739996;81;21646;-64
2022/06/13 00:06:07;;;;;;;9.68;5.67;;;;;;;18.08;100.00;99356.64;1720614;82;21047;-62
2022/06/13 00:08:33;;;;;;;8.38;5.70;;;;;;;18.05;100.00;99349.05;1726665;81;21067;-64
2022/06/13 00:11:02;;;;;;;9.25;6.22;;;;;;;18.07;100.00;99335.73;1731594;82;21556;-62
2022/06/13 00:13:30;;;;;;;9.20;6.10;;;;;;;18.12;100.00;99336.13;1745828;80;21158;-61
2022/06/13 00:15:56;;;;;;;;;;;;;;;18.13;100.00;99341.89;1734301;81;21017;-61
2022/06/13 00:18:24;;;;;;;9.53;6.03;;;;;;;18.12;100.00;99346.59;1746429;81;20429;-62
2022/06/13 00:20:50;;;;;;;;;;;;;;;18.07;100.00;99348.13;1737403;82;21443;-64
2022/06/13 00:23:17;;;;;;;9.18;6.25;;;;;;;18.13;100.00;99341.33;1742094;81;20126;-64
2022/06/13 00:25:44;;;;;;;10.23;6.60;;;;;;;18.14;100.00;99339.38;1741257;81;21460;-62
2022/06/13 00:28:10;;;;;;;8.13;6.62;;;;;;;18.15;100.00;99344.55;1734137;81;21031;-61
2022/06/13 00:30:37;;;;;;;8.33;6.30;;;;;;;18.15;100.00;99343.16;1738731;81;20993;-61
2022/06/13 00:33:04;;;;;;;8.35;6.10;;;;;;;18.15;100.00;99340.41;1735640;82;21106;-62
2022/06/13 00:35:30;;;;;;;7.45;5.60;;;;;;;18.16;100.00;99337.91;1743254;82;20953;-62
2022/06/13 00:37:57;;;;;;;8.85;6.22;;;;;;;18.22;100.00;99342.64;1732548;81;21087;-61
2022/06/13 00:40:23;;;;;;;8.10;6.22;;;;;;;18.24;100.00;99342.57;1731902;82;21391;-62
2022/06/13 00:42:50;;;;;;;7.40;6.00;;;;;;;18.23;100.00;99345.64;1737491;81;21594;-63
2022/06/13 00:45:26;;;;;;;9.00;6.75;;;;;;;18.21;100.00;99343.21;1721481;82;21019;-64
2022/06/13 00:47:54;;;;;;;8.15;5.72;;;;;;;18.23;100.00;99338.76;1733529;81;21535;-63
2022/06/13 00:50:34;;;;;;;8.30;5.85;;;;;;;18.26;100.00;99336.14;1739997;81;20993;-63
2022/06/13 00:53:08;;;;;;;8.70;6.17;;;;;;;18.29;100.00;99339.61;1723944;82;21098;-63
2022/06/13 00:55:42;;;;;;;6.05;5.20;;;;;;;18.28;100.00;99335.83;1735968;81;20965;-64
2022/06/13 00:58:09;;;;;;;7.17;5.67;;;;;;;18.22;100.00;99336.57;1740956;81;21024;-64
2022/06/13 01:00:35;;;;;;;7.42;5.65;;;;;;;18.18;100.00;99336.17;1732189;81;21030;-66
2022/06/13 01:03:03;;;;;;;8.65;5.80;;;;;;;18.15;100.00;99339.03;1744262;80;21660;-65
2022/06/13 01:05:31;;;;;;;9.18;5.87;;;;;;;18.16;100.00;99336.52;1741185;81;21012;-65
2022/06/13 01:07:59;;;;;;;8.73;6.20;;;;;;;18.12;100.00;99333.38;1721622;81;21012;-64
2022/06/13 01:13:10;;;;;;;8.28;5.67;;;;;;;17.98;100.00;99335.55;1733249;81;21089;-64
2022/06/13 01:15:52;;;;;;;7.97;5.90;;;;;;;17.95;100.00;99336.20;1736871;81;21331;-64
2022/06/13 01:18:36;;;;;;;6.70;5.55;;;;;;;17.95;100.00;99335.64;1698358;82;21623;-65
2022/06/13 01:21:27;;;;;;;10.38;5.60;;;;;;;17.91;100.00;99338.81;1733926;82;20936;-64
2022/06/13 01:24:08;;;;;;;6.60;5.40;;;;;;;17.84;100.00;99335.76;1742868;81;21641;-64
2022/06/13 01:27:26;;;;;;;6.37;5.45;;;;;;;17.73;100.00;99338.06;1738685;81;21561;-65
2022/06/13 01:30:01;;;;;;;7.35;5.40;;;;;;;17.62;100.00;99342.30;1726873;81;21452;-65
2022/06/13 01:32:51;;;;;;;7.67;6.10;;;;;;;17.54;100.00;99346.40;1743643;81;21019;-64
2022/06/13 01:35:33;;;;;;;8.23;5.45;;;;;;;17.50;100.00;99342.71;1741044;81;20987;-65
2022/06/13 01:38:42;;;;;;;6.83;5.70;;;;;;;17.42;100.00;99344.34;1730984;82;21059;-64
2022/06/13 01:41:19;;;;;;;8.15;6.25;;;;;;;17.30;100.00;99342.23;1732355;82;21418;-64
2022/06/13 01:44:09;;;;;;;7.10;5.72;;;;;;;17.21;100.00;99345.58;1740004;81;21031;-64
2022/06/13 01:46:49;;;;;;;8.30;5.85;;;;;;;17.20;100.00;99342.58;1731538;80;21063;-65
2022/06/13 01:49:27;;;;;;;8.75;5.97;;;;;;;17.17;100.00;99347.36;1738493;81;21046;-65
2022/06/13 01:52:28;;;;;;;7.33;6.37;;;;;;;17.09;100.00;99344.59;1741719;82;20991;-62
2022/06/13 01:55:02;;;;;;;9.08;7.10;;;;;;;16.99;100.00;99340.23;1745157;82;21040;-61
2022/06/13 01:57:44;;;;;;;9.70;7.33;;;;;;;16.95;100.00;99342.57;1733007;80;21591;-62
2022/06/13 02:00:19;;;;;;;10.88;6.87;;;;;;;16.91;100.00;99343.22;1737512;82;20990;-61
2022/06/13 02:03:27;;;;;;;11.65;7.12;;;;;;;16.90;100.00;99343.53;1738370;81;21555;-62
2022/06/13 02:06:02;;;;;;;13.15;7.60;;;;;;;16.85;100.00;99346.45;1723491;82;20979;-61
2022/06/13 02:08:41;;;;;;;9.08;7.33;;;;;;;16.79;100.00;99345.00;1748694;81;21039;-61
2022/06/13 02:11:28;;;;;;;8.75;6.58;;;;;;;16.79;100.00;99342.26;1725287;81;20971;-61
2022/06/13 02:14:01;;;;;;;8.48;7.17;;;;;;;16.81;100.00;99349.05;1743985;81;21075;-62
2022/06/13 02:16:35;;;;;;;9.48;7.20;;;;;;;16.83;100.00;99349.52;1728735;82;20977;-62
2022/06/13 02:19:19;;;;;;;9.70;7.60;;;;;;;16.81;100.00;99345.48;1723333;81;21029;-61
2022/06/13 02:21:58;;;;;;;10.58;7.10;;;;;;;16.79;100.00;99349.12;1734434;82;21165;-62
2022/06/13 02:24:33;;;;;;;6.53;5.75;;;;;;;16.80;100.00;99352.09;1740188;80;21078;-62
2022/06/13 02:27:01;;;;;;;10.23;6.72;;;;;;;16.82;100.00;99345.73;1746386;82;21034;-62
2022/06/13 02:29:39;;;;;;;8.00;6.50;;;;;;;16.85;100.00;99351.95;1740769;80;21086;-62
2022/06/13 02:32:09;;;;;;;10.40;6.97;;;;;;;16.84;100.00;99347.58;1733630;81;21499;-62
2022/06/13 02:34:45;;;;;;;9.20;5.97;;;;;;;16.79;100.00;99354.63;1746367;82;20959;-62
2022/06/13 02:37:19;;;;;;;7.75;6.15;;;;;;;16.79;100.00;99358.16;1689855;81;21043;-62
2022/06/13 02:40:06;;;;;;;7.12;6.17;;;;;;;16.86;100.00;99359.08;1743370;82;21006;-61
2022/06/13 02:42:45;;;;;;;8.15;6.00;;;;;;;16.90;100.00;99359.47;1740299;81;21081;-63
2022/06/13 02:45:22;;;;;;;7.20;5.80;;;;;;;16.92;100.00;99361.91;1675729;82;20999;-63
2022/06/13 02:47:57;;;;;;;10.60;5.87;;;;;;;16.88;100.00;99361.74;1710886;82;21083;-63
2022/06/13 02:50:32;;;;;;;9.08;6.05;;;;;;;16.97;100.00;99363.11;1733276;81;21009;-63
2022/06/13 02:53:10;;;;;;;6.53;5.40;;;;;;;17.04;100.00;99364.80;1744691;80;21067;-64
2022/06/13 02:55:42;;;;;;;6.58;5.65;;;;;;;17.10;100.00;99359.41;1749068;81;21021;-63
2022/06/13 02:58:34;;;;;;;8.08;6.15;;;;;;;17.14;100.00;99361.77;1752839;80;21050;-61
2022/06/13 03:01:14;;;;;;;7.83;5.70;;;;;;;17.15;100.00;99362.55;1743214;81;20915;-61
2022/06/13 03:03:55;;;;;;;8.43;5.20;;;;;;;17.18;100.00;99360.55;1752246;80;21060;-61
2022/06/13 03:06:48;;;;;;;6.95;4.75;;;;;;;17.29;100.00;99365.94;1745889;81;21043;-62
2022/06/13 03:09:28;;;;;;;7.45;5.22;;;;;;;17.40;100.00;99368.60;1753099;81;21636;-62
2022/06/13 03:12:06;;;;;;;7.78;5.42;;;;;;;17.58;100.00;99370.23;1737064;82;21074;-63
2022/06/13 03:14:50;;;;;;;5.80;5.05;;;;;;;17.76;100.00;99361.36;1736562;82;20941;-64
2022/06/13 03:18:04;;;;;;;7.17;4.80;;;;;;;17.95;100.00;99367.87;1750251;80;21014;-61
2022/06/13 03:20:50;;;;;;;6.08;5.05;;;;;;;18.18;100.00;99360.97;1736979;81;21011;-62
2022/06/13 03:23:25;;;;;;;7.08;5.30;;;;;;;18.64;100.00;99360.11;1742691;80;21085;-62
2022/06/13 03:26:12;;;;;;;7.53;4.85;;;;;;;18.94;100.00;99354.81;1747525;81;20963;-62
2022/06/13 03:29:04;;;;;;;5.50;4.62;;;;;;;19.19;100.00;99366.22;1744956;81;21067;-63
2022/06/13 03:31:38;;;;;;;6.40;4.92;;;;;;;19.52;100.00;99359.95;1745896;81;20979;-64
2022/06/13 03:34:12;;;;;;;7.40;5.33;;;;;;;19.78;100.00;99354.95;1746234;81;21130;-63
2022/06/13 03:36:45;;;;;;;5.65;4.80;;;;;;;20.02;100.00;99354.98;1740311;81;21466;-64
2022/06/13 03:39:18;;;;;;;5.83;4.60;;;;;;;20.14;100.00;99353.63;1753668;81;21624;-63
2022/06/13 03:41:49;;;;;;;5.78;4.78;;;;;;;20.30;100.00;99360.11;1745727;81;21541;-63
2022/06/13 03:44:37;;;;;;;5.37;4.50;;;;;;;20.27;100.00;99353.05;1746400;80;21673;-63
2022/06/13 03:47:22;;;;;;;6.53;4.65;;;;;;;20.38;100.00;99353.44;1741605;81;20995;-63
2022/06/13 03:50:18;;;;;;;5.62;4.33;;;;;;;20.62;100.00;99348.70;1745141;81;20994;-63
2022/06/13 03:52:49;;;;;;;5.83;4.47;;;;;;;20.97;100.00;99350.96;1750405;81;21019;-64
2022/06/13 03:55:40;;;;;;;5.83;4.42;;;;;;;21.12;100.00;99348.85;1740722;81;21474;-62
2022/06/13 03:58:14;;;;;;;6.33;4.62;;;;;;;21.25;100.00;99340.18;1752943;80;21070;-63
2022/06/13 04:00:47;;;;;;;6.53;4.53;;;;;;;21.21;100.00;99346.19;1742619;81;20981;-63
2022/06/13 04:03:13;;;;;;;7.70;4.30;;;;;;;21.11;100.00;99344.50;1743261;81;21023;-64
2022/06/13 04:05:57;;;;;;;7.30;4.37;;;;;;;21.13;100.00;99341.59;1749067;81;21015;-66
2022/06/13 04:08:23;;;;;;;6.67;4.90;;;;;;;21.07;100.00;99350.47;1746376;80;21051;-65
2022/06/13 04:11:18;;;;;;;7.97;4.97;;;;;;;21.04;100.00;99358.90;1754896;82;21013;-62
2022/06/13 04:14:15;;;;;;;5.97;5.03;;;;;;;21.04;100.00;99358.90;1741365;81;21039;-63
2022/06/13 04:16:50;;;;;;;5.55;4.80;;;;;;;21.08;100.00;99354.86;1732638;81;20948;-64
2022/06/13 04:19:34;;;;;;;8.37;5.00;;;;;;;21.15;100.00;99360.63;1745825;80;21014;-63
2022/06/13 04:22:09;;;;;;;5.65;4.55;;;;;;;21.32;100.00;99357.57;1747291;82;20994;-63
2022/06/13 04:24:59;;;;;;;8.90;4.70;;;;;;;21.40;100.00;99362.73;1745519;81;20987;-64
2022/06/13 04:27:48;;;;;;;5.72;4.62;;;;;;;21.38;100.00;99359.50;1742112;81;21043;-64
2022/06/13 04:30:19;;;;;;;6.35;5.40;;;;;;;21.66;100.00;99365.25;1744053;81;20951;-64
2022/06/13 04:32:53;;;;;;;6.17;4.70;;;;;;;21.75;100.00;99358.18;1742081;81;21055;-65
2022/06/13 04:35:20;;;;;;;6.30;4.87;;;;;;;21.92;100.00;99363.41;1748030;81;21014;-63
2022/06/13 04:37:48;;;;;;;6.60;5.47;;;;;;;21.92;100.00;99363.41;1732065;81;21591;-62
2022/06/13 04:40:19;;;;;;;8.03;5.37;;;;;;;21.92;100.00;99367.57;1745911;81;21414;-63
2022/06/13 04:42:46;;;;;;;6.50;4.65;;;;;;;21.94;100.00;99365.81;1743888;80;21098;-65
2022/06/13 04:45:26;;;;;;;6.60;4.90;;;;;;;21.89;100.00;99370.22;1752243;81;20967;-63
2022/06/13 04:47:54;;;;;;;8.40;4.87;;;;;;;22.01;100.00;99370.97;1742493;80;21022;-63
2022/06/13 04:50:37;;;;;;;9.10;5.72;;;;;;;22.32;100.00;99368.20;1751272;82;21029;-64
2022/06/13 04:53:05;;;;;;;6.83;5.50;;;;;;;22.32;100.00;99368.20;1744756;82;21553;-65
2022/06/13 04:55:42;;;;;;;6.42;5.20;;;;;;;22.30;100.00;99369.73;1751590;81;20988;-63
2022/06/13 04:58:36;;;;;;;7.97;5.25;;;;;;;22.41;100.00;99371.38;1746443;81;21019;-64
2022/06/13 05:01:24;;;;;;;9.65;6.03;;;;;;;22.57;100.00;99369.38;1731982;82;20992;-62
2022/06/13 05:03:50;;;;;;;12.28;5.65;;;;;;;22.85;100.00;99366.52;1752641;81;21094;-64
2022/06/13 05:06:55;;;;;;;7.65;5.75;;;;;;;22.96;100.00;99372.52;1751591;81;21363;-62
2022/06/13 05:09:29;;;;;;;7.33;5.67;;;;;;;23.13;100.00;99365.15;1731619;81;21106;-64
2022/06/13 05:12:13;;;;;;;8.53;6.03;;;;;;;23.42;100.00;99366.59;1750450;81;21387;-64
2022/06/13 05:14:55;;;;;;;24.37;19.48;;;;;;;23.69;100.00;99370.31;1751098;81;21419;-63
2022/06/13 05:17:52;;;;;;;10.85;7.70;;;;;;;23.97;100.00;99379.77;1735978;82;20998;-65
2022/06/13 05:20:59;;;;;;;6.20;5.33;;;;;;;24.11;100.00;99379.44;1730382;81;21389;-64
2022/06/13 05:23:56;;;;;;;8.73;5.97;;;;;;;24.16;100.00;99373.58;1729622;81;21031;-62
2022/06/13 05:26:28;;;;;;;8.95;6.28;;;;;;;24.09;100.00;99372.66;1742533;80;21003;-64
2022/06/13 05:28:51;;;;;;;9.53;5.90;;;;;;;24.05;100.00;99370.39;1745143;80;21135;-65
2022/06/13 05:31:19;;;;;;;9.73;6.12;;;;;;;24.11;100.00;99372.49;1728686;81;20969;-65
2022/06/13 05:33:47;;;;;;;8.08;5.58;;;;;;;24.23;100.00;99367.38;1750816;80;21626;-63
2022/06/13 05:36:16;;;;;;;10.35;5.87;;;;;;;24.50;100.00;99373.77;1756525;81;20972;-63
2022/06/13 05:38:50;;;;;;;9.60;5.90;;;;;;;24.71;100.00;99364.36;1743297;81;21032;-65
2022/06/13 05:41:16;;;;;;;9.53;5.80;;;;;;;24.75;100.00;99372.17;1726291;82;21404;-66
2022/06/13 05:43:44;;;;;;;7.83;5.15;;;;;;;24.77;100.00;99373.40;1740295;81;21037;-66
2022/06/13 05:46:30;;;;;;;8.73;5.30;;;;;;;24.74;100.00;99367.19;1731575;81;20972;-67
2022/06/13 05:48:56;;;;;;;8.08;4.80;;;;;;;25.01;100.00;99354.08;1719735;81;21060;-67
2022/06/13 05:51:23;;;;;;;10.85;5.10;;;;;;;25.34;100.00;99357.50;1736584;82;20975;-66
2022/06/13 05:53:49;;;;;;;9.15;5.03;;;;;;;25.68;100.00;99354.16;1744903;81;21040;-67
2022/06/13 05:56:16;;;;;;;6.87;4.37;;;;;;;25.91;100.00;99357.58;1740114;81;20999;-66
2022/06/13 05:58:44;;;;;;;6.67;4.58;;;;;;;25.95;100.00;99364.59;1734990;81;21099;-67
2022/06/13 06:02:24;;;;;;;5.65;4.25;;;;;;;25.85;100.00;99357.73;1798193;79;22789;-65
2022/06/13 06:04:52;;;;;;;7.83;4.20;;;;;;;25.95;100.00;99352.84;1754475;80;21624;-67
2022/06/13 06:07:18;;;;;;;8.18;4.62;;;;;;;26.37;100.00;99365.02;1751730;80;21034;-65
2022/06/13 06:09:46;;;;;;;7.33;4.30;;;;;;;26.61;100.00;99355.22;1758926;80;21067;-66
2022/06/13 06:12:14;;;;;;;12.23;3.60;;;;;;;26.84;100.00;99356.42;1755116;80;21050;-66
2022/06/13 06:14:41;;;;;;;6.87;3.95;;;;;;;27.00;100.00;99362.48;1747220;81;21525;-66
2022/06/13 06:17:07;;;;;;;7.33;3.83;;;;;;;26.82;100.00;99360.18;1748425;80;20970;-66
2022/06/13 06:19:33;;;;;;;6.65;3.50;;;;;;;26.67;100.00;99360.08;1758080;81;21061;-66
2022/06/13 06:22:00;;;;;;;5.03;3.40;;;;;;;26.70;100.00;99356.51;1760869;81;21022;-66
2022/06/13 06:24:27;;;;;;;6.10;3.55;;;;;;;26.84;100.00;99354.44;1758985;80;21089;-69
2022/06/13 06:26:54;;;;;;;6.70;3.45;;;;;;;26.96;100.00;99351.92;1751388;80;21059;-66
2022/06/13 06:29:20;;;;;;;5.20;3.30;;;;;;;26.97;100.00;99350.11;1755073;81;21679;-66
2022/06/13 06:31:48;;;;;;;4.95;3.05;;;;;;;26.95;100.00;99351.11;1757417;80;21048;-65
2022/06/13 06:34:15;;;;;;;4.62;2.92;;;;;;;26.96;100.00;99349.91;1747470;80;21086;-69
2022/06/13 06:36:42;;;;;;;5.08;3.55;;;;;;;27.03;100.00;99352.73;1751418;80;21058;-67
2022/06/13 06:39:09;;;;;;;6.35;3.80;;;;;;;27.00;98.84;99354.91;1760018;80;21054;-67
2022/06/13 06:41:37;;;;;;;6.10;3.37;;;;;;;27.12;98.57;99346.21;1759233;81;21113;-65
2022/06/13 06:44:04;;;;;;;3.90;3.10;;;;;;;27.14;98.01;99345.80;1758454;80;21030;-64
2022/06/13 06:46:30;;;;;;;4.22;3.17;;;;;;;27.24;97.83;99347.07;1753882;80;20995;-66
2022/06/13 06:48:56;;;;;;;4.60;3.05;;;;;;;27.41;98.39;99350.53;1761123;80;21011;-64
2022/06/13 06:51:29;;;;;;;3.92;3.00;;;;;;;27.57;96.75;99342.03;1750250;80;20998;-66
2022/06/13 07:02:08;;;;;;;5.97;2.85;;;;;;;27.77;92.96;99345.30;1744196;81;21082;-68
2022/06/13 07:04:34;;;;;;;4.05;2.87;;;;;;;27.33;97.22;99342.71;1744100;81;21007;-69
2022/06/13 07:07:01;;;;;;;3.65;2.37;;;;;;;27.46;99.69;99343.98;1745637;82;21350;-69
2022/06/13 07:09:28;;;;;;;3.30;2.02;;;;;;;27.91;100.00;99344.52;1729725;81;21055;-66
2022/06/13 07:11:54;;;;;;;2.67;2.02;;;;;;;28.52;93.15;99342.77;1747326;82;21020;-68
2022/06/13 07:14:28;;;;;;;2.50;1.90;;;;;;;28.66;87.01;99347.58;1747311;81;21441;-68
2022/06/13 07:17:00;;;;;;;3.12;1.87;;;;;;;28.62;85.79;99351.78;1745984;80;21066;-66
2022/06/13 07:19:28;;;;;;;3.55;2.17;;;;;;;28.65;85.47;99348.17;1746451;81;21550;-69
2022/06/13 07:21:56;;;;;;;4.45;1.65;;;;;;;28.69;82.57;99352.40;1746527;82;21004;-68
2022/06/13 07:24:22;;;;;;;4.15;2.05;;;;;;;28.66;80.47;99351.78;1734800;81;21099;-70
2022/06/13 07:26:49;;;;;;;2.45;1.90;;;;;;;28.60;80.78;99349.16;1746117;81;20983;-66
2022/06/13 07:29:17;;;;;;;3.08;1.45;;;;;;;28.53;79.06;99347.17;1743838;81;21079;-69
2022/06/13 07:31:58;;;;;;;1.82;1.65;;;;;;;28.34;74.88;99348.19;1727871;81;21035;-67
2022/06/13 07:34:27;;;;;;;2.52;1.75;;;;;;;27.88;78.76;99347.48;1740477;81;21553;-66
2022/06/13 07:36:55;;;;;;;2.45;1.57;;;;;;;27.81;82.84;99352.30;1743059;81;21068;-66
2022/06/13 07:39:22;;;;;;;3.50;2.37;;;;;;;27.81;80.93;99340.48;1731806;81;21822;-67
2022/06/13 07:41:49;;;;;;;3.75;1.77;;;;;;;27.67;84.11;99346.04;1686293;83;21063;-68
2022/06/13 07:44:29;;;;;;;3.60;2.50;;;;;;;27.19;88.63;99350.44;1747321;82;21572;-69
2022/06/13 07:46:57;;;;;;;4.55;2.30;;;;;;;26.62;93.68;99345.67;1742182;81;21130;-67
2022/06/13 07:49:25;;;;;;;3.20;2.22;;;;;;;25.83;100.00;99347.53;1728980;81;21146;-67
2022/06/13 07:51:52;;;;;;;2.90;2.02;;;;;;;25.36;100.00;99354.34;1747758;81;21466;-67
2022/06/13 07:54:18;;;;;;;4.05;2.30;;;;;;;25.19;100.00;99348.16;1719948;82;21586;-67
2022/06/13 07:56:45;;;;;;;3.77;2.37;;;;;;;25.52;100.00;99343.81;1746815;81;21019;-66
2022/06/13 07:59:17;;;;;;;5.08;2.30;;;;;;;26.22;100.00;99338.98;1739322;82;21433;-66
2022/06/13 08:01:44;;;;;;;2.87;1.80;;;;;;;26.87;100.00;99340.28;1733127;81;21031;-67
2022/06/13 08:04:11;;;;;;;2.85;1.72;;;;;;;27.33;98.31;99331.53;1738269;81;21047;-68
2022/06/13 08:06:41;;;;;;;2.60;1.90;;;;;;;27.59;92.95;99329.87;1734873;81;21055;-65
2022/06/13 08:09:06;;;;;;;4.65;1.70;;;;;;;27.77;92.34;99332.70;1745080;81;21046;-67
2022/06/13 08:11:37;;;;;;;2.90;1.77;;;;;;;28.04;88.61;99324.15;1741205;81;21023;-66
2022/06/13 08:14:06;;;;;;;4.20;1.92;;;;;;;28.47;87.69;99326.98;1741088;81;21026;-68
2022/06/13 08:16:34;;;;;;;2.20;1.10;;;;;;;28.75;80.84;99326.97;1733684;81;21024;-67
2022/06/13 08:19:03;;;;;;;3.35;1.42;;;;;;;28.98;73.27;99321.70;1739466;82;21637;-65
2022/06/13 08:21:31;;;;;;;2.47;1.60;;;;;;;29.04;72.04;99315.89;1731345;81;21568;-67
2022/06/13 08:23:58;;;;;;;2.80;1.50;;;;;;;29.18;70.64;99322.64;1721110;83;21036;-67
2022/06/13 08:26:24;;;;;;;2.42;1.30;;;;;;;29.15;69.76;99315.86;1738973;82;21068;-67
2022/06/13 08:28:51;;;;;;;2.00;1.37;;;;;;;29.34;67.24;99312.59;1731715;81;21068;-66
2022/06/13 08:31:19;;;;;;;2.45;1.10;;;;;;;29.54;67.70;99310.91;1737739;81;21054;-66
2022/06/13 08:33:47;;;;;;;4.05;1.22;;;;;;;29.74;67.87;99305.56;1740010;81;21062;-66
2022/06/13 08:36:13;;;;;;;3.02;1.30;;;;;;;29.89;63.99;99309.91;1706030;82;21566;-67
2022/06/13 08:38:40;;;;;;;2.00;1.10;;;;;;;29.88;60.84;99308.31;1728346;81;21446;-66
2022/06/13 08:41:22;;;;;;;2.65;1.30;;;;;;;29.75;62.83;99311.38;1729737;81;21852;-65
2022/06/13 08:44:11;;;;;;;2.10;1.20;;;;;;;29.78;61.33;99305.55;1746905;81;21585;-64
2022/06/13 08:46:58;;;;;;;2.55;1.47;;;;;;;29.67;60.01;99307.01;1730884;82;21665;-64
2022/06/13 08:49:51;;;;;;;1.80;1.35;;;;;;;29.53;64.41;99305.69;1734617;81;21051;-64
2022/06/13 08:52:36;;;;;;;2.10;1.32;;;;;;;29.57;63.70;99312.08;1723950;82;21617;-63
2022/06/13 08:55:26;;;;;;;2.22;1.55;;;;;;;28.78;63.99;99312.16;1735413;81;20958;-66
2022/06/13 08:58:02;;;;;;;2.25;1.45;;;;;;;28.16;66.77;99312.58;1736997;81;21063;-63
2022/06/13 09:00:30;;;;;;;2.00;1.30;;;;;;;27.77;70.20;99314.53;1736551;81;21490;-64
2022/06/13 09:03:13;;;;;;;4.90;1.37;;;;;;;27.48;73.36;99306.67;1739273;81;21491;-63
2022/06/13 09:05:45;;;;;;;1.80;1.30;;;;;;;27.28;75.39;99305.35;1658805;85;20972;-66
2022/06/13 09:08:18;;;;;;;2.55;1.22;;;;;;;27.09;74.56;99305.09;1715581;81;21055;-65
2022/06/13 09:11:25;;;;;;;2.42;1.50;;;;;;;26.84;77.05;99300.57;1744407;82;20964;-63
2022/06/13 09:13:59;;;;;;;2.00;1.60;;;;;;;26.60;79.35;99302.00;1723244;81;21023;-62
2022/06/13 09:16:33;;;;;;;2.42;1.40;;;;;;;26.46;81.79;99298.52;1711632;82;21511;-64
2022/06/13 09:19:17;;;;;;;3.12;1.50;;;;;;;26.42;85.79;99308.05;1721725;81;21059;-63
2022/06/13 09:22:04;;;;;;;4.50;1.55;;;;;;;26.29;85.76;99306.14;1711329;83;21039;-66
2022/06/13 09:24:52;;;;;;;;;;;;;;;26.23;89.36;99310.48;1720329;82;21031;-63
2022/06/13 09:27:42;;;;;;;2.95;1.50;;;;;;;26.18;91.49;99310.24;1746723;82;20110;-63
2022/06/13 09:30:17;;;;;;;2.92;1.27;;;;;;;26.07;94.75;99309.94;1668158;83;21054;-62
2022/06/13 09:32:49;;;;;;;3.43;1.60;;;;;;;25.96;88.99;99306.25;1725267;81;21048;-63
2022/06/13 09:35:26;;;;;;;1.55;1.35;;;;;;;26.07;95.69;99301.57;1728453;82;20952;-65
2022/06/13 09:38:16;;;;;;;3.15;1.42;;;;;;;26.37;94.69;99304.22;1723205;81;21048;-65
2022/06/13 09:41:06;;;;;;;2.85;1.52;;;;;;;26.61;91.06;99303.58;1736155;82;20968;-64
2022/06/13 09:44:11;;;;;;;2.72;1.55;;;;;;;26.77;86.87;99294.32;1724427;81;21020;-66
2022/06/13 09:46:53;;;;;;;2.27;1.47;;;;;;;26.96;85.46;99298.23;1741573;82;20995;-63
2022/06/13 09:49:36;;;;;;;4.50;1.35;;;;;;;26.94;76.72;99286.66;1740423;81;21448;-64
2022/06/13 09:52:10;;;;;;;1.87;1.52;;;;;;;26.94;75.84;99297.83;1738264;81;21047;-64
2022/06/13 09:54:57;;;;;;;2.47;1.50;;;;;;;27.02;73.25;99286.10;1738903;82;21004;-64
2022/06/13 09:57:48;;;;;;;2.08;1.30;;;;;;;27.15;75.60;99283.16;1687189;81;21613;-65
2022/06/13 10:00:37;;;;;;;1.70;1.30;;;;;;;27.40;75.63;99281.25;1729774;82;21019;-64
2022/06/13 10:03:46;;;;;;;3.67;1.50;;;;;;;27.59;75.29;99284.33;1740246;82;21019;-64
2022/06/13 10:06:25;;;;;;;2.35;1.27;;;;;;;27.64;71.27;99289.52;1712665;83;21490;-64
2022/06/13 10:09:07;;;;;;;3.40;1.40;;;;;;;27.48;70.32;99281.52;1701804;83;21028;-63
2022/06/13 10:11:45;;;;;;;2.62;1.32;;;;;;;27.43;71.18;99288.03;1724437;82;21066;-66
2022/06/13 10:14:35;;;;;;;2.67;1.27;;;;;;;27.39;72.92;99285.83;1680265;85;21047;-62
2022/06/13 10:17:28;;;;;;;4.05;1.85;;;;;;;27.43;71.54;99281.05;1651941;86;21028;-62
2022/06/13 10:20:13;;;;;;;2.42;1.52;;;;;;;27.46;69.14;99278.89;1713166;83;21051;-64
2022/06/13 10:23:04;;;;;;;2.42;1.20;;;;;;;27.41;66.12;99272.27;1695349;83;21614;-64
2022/06/13 10:26:00;;;;;;;2.15;1.30;;;;;;;27.24;67.45;99277.21;1718898;83;20959;-64
2022/06/13 10:28:47;;;;;;;1.85;1.20;;;;;;;27.09;68.83;99281.94;1712621;82;21063;-64
2022/06/13 10:31:36;;;;;;;2.70;1.82;;;;;;;26.90;70.80;99271.88;1695603;83;21526;-67
2022/06/13 10:34:42;;;;;;;3.15;1.75;;;;;;;26.80;74.77;99276.78;1690965;83;21431;-66
2022/06/13 10:37:31;;;;;;;4.12;1.72;;;;;;;26.69;76.28;99276.73;1682690;83;21043;-64
2022/06/13 10:40:00;;;;;;;3.77;1.60;;;;;;;26.51;80.54;99284.19;1692800;82;21031;-67
2022/06/13 10:42:29;;;;;;;4.95;1.70;;;;;;;26.49;79.92;99280.19;1718450;83;21543;-66
2022/06/13 10:44:56;;;;;;;2.80;1.42;;;;;;;26.45;81.39;99281.56;1719527;83;21443;-68
2022/06/13 10:47:30;;;;;;;2.85;1.45;;;;;;;26.45;82.47;99285.75;1711835;82;21023;-66
2022/06/13 10:50:03;;;;;;;2.40;1.62;;;;;;;26.42;86.14;99281.54;1708807;82;20967;-67
2022/06/13 10:52:41;;;;;;;4.00;1.65;;;;;;;26.38;88.50;99284.31;1710369;82;21050;-67
2022/06/13 10:55:09;;;;;;;3.30;1.50;;;;;;;26.44;87.93;99276.36;1707186;82;20959;-65
2022/06/13 10:57:43;;;;;;;2.42;1.60;;;;;;;26.38;85.09;99272.34;1708901;82;21015;-66
2022/06/13 11:00:21;;;;;;;2.87;1.80;;;;;;;26.38;87.19;99275.13;1713827;82;20944;-66
2022/06/13 11:02:47;;;;;;;3.00;1.50;;;;;;;26.41;84.01;99272.95;1675107;84;21062;-66
2022/06/13 11:05:21;;;;;;;3.60;1.42;;;;;;;26.39;82.46;99270.56;1660087;85;21003;-64
2022/06/13 11:07:55;;;;;;;2.33;1.50;;;;;;;26.36;81.55;99271.94;1658947;85;21618;-64
2022/06/13 11:10:33;;;;;;;3.75;1.62;;;;;;;26.30;84.50;99265.91;1676658;84;20999;-65
2022/06/13 11:13:03;;;;;;;5.72;1.52;;;;;;;26.29;82.83;99269.09;1681082;84;21043;-65
2022/06/13 11:24:51;;;;;;;3.47;1.40;;;;;;;26.24;71.05;99261.88;1701104;82;20979;-63
2022/06/13 11:27:41;;;;;;;2.37;1.40;;;;;;;26.35;69.94;99264.75;1685303;84;21557;-64
2022/06/13 11:30:31;;;;;;;3.40;1.27;;;;;;;26.41;71.20;99261.80;1699993;84;20960;-64
2022/06/13 11:33:16;;;;;;;2.50;1.42;;;;;;;26.50;69.40;99261.64;1692938;84;21038;-63
2022/06/13 11:35:56;;;;;;;1.92;1.07;;;;;;;26.56;67.57;99251.73;1698368;84;20955;-63
2022/06/13 11:38:34;;;;;;;3.65;1.40;;;;;;;26.69;61.89;99248.81;1700023;84;21047;-63
2022/06/13 11:41:22;;;;;;;3.05;1.30;;;;;;;26.82;64.54;99242.90;1696624;84;20975;-66
2022/06/13 11:44:15;;;;;;;1.70;1.17;;;;;;;26.89;59.74;99239.55;1704130;82;21102;-64
2022/06/13 11:46:58;;;;;;;3.62;1.22;;;;;;;26.91;55.44;99243.36;1702569;82;20991;-62
2022/06/13 11:49:38;;;;;;;2.27;1.30;;;;;;;26.92;59.64;99233.80;1703725;82;21050;-63
2022/06/13 11:53:35;;;;;;;2.45;1.30;;;;;;;26.91;63.30;99229.39;1700461;82;21018;-63
2022/06/13 11:54:56;;;;;;;3.40;1.47;;;;;;;27.06;65.21;99231.05;1692984;83;20975;-63
2022/06/13 11:57:40;;;;;;;1.90;1.10;;;;;;;27.21;63.83;99231.28;1700376;84;21501;-64
2022/06/13 12:00:21;;;;;;;2.45;1.35;;;;;;;27.42;63.88;99226.37;1700812;84;20983;-64
2022/06/13 12:02:56;;;;;;;1.65;1.32;;;;;;;27.67;67.40;99227.20;1700710;83;21043;-64
2022/06/13 12:05:36;;;;;;;2.23;1.40;;;;;;;27.73;64.26;99219.23;1737042;81;20952;-64
2022/06/13 12:08:22;;;;;;;2.25;1.35;;;;;;;27.59;65.65;99220.83;1740211;81;21252;-64
2022/06/13 12:11:18;;;;;;;6.08;1.65;;;;;;;27.50;64.59;99219.01;1740723;82;21442;-64
2022/06/13 12:13:46;;;;;;;2.83;1.60;;;;;;;27.50;66.91;99212.61;1740615;81;21029;-62
2022/06/13 12:16:40;;;;;;;3.98;2.02;;;;;;;27.44;69.57;99209.39;1746353;81;20960;-67
2022/06/13 12:19:36;;;;;;;2.12;1.40;;;;;;;27.44;72.54;99205.80;1738851;81;21035;-64
2022/06/13 12:22:29;;;;;;;3.60;1.40;;;;;;;27.50;73.45;99200.84;1740698;82;20999;-64
2022/06/13 12:25:22;;;;;;;2.35;1.40;;;;;;;27.57;60.32;99200.04;1738661;81;20998;-66
2022/06/13 12:28:06;;;;;;;2.62;1.60;;;;;;;27.57;60.22;99199.45;1705479;84;21612;-66
2022/06/13 12:30:49;;;;;;;2.00;1.32;;;;;;;27.51;62.43;99191.86;1691398;83;21494;-65
2022/06/13 12:33:33;;;;;;;4.37;1.40;;;;;;;27.54;64.07;99191.06;1697553;84;21035;-66
2022/06/13 12:36:44;;;;;;;3.35;1.57;;;;;;;27.58;62.18;99188.47;1730755;81;20972;-65